Time;durP1;ratioP1;P1;durP2;ratioP2;P2;SDS_P1;SDS_P2;PMS_P1;PMS_P2;Temp;Humidity;BMP_temperature;BMP_pressure;BME280_temperature;BME280_humidity;BME280_pressure;Samples;Min_cycle;Max_cycle;Signal;HPM_P1;HPM_P2
2022/10/26 00:00:53;;;;;;;22.80;16.13;;;11.20;99.90;;;;;;5045348;28;20210;-83
2022/10/26 00:03:20;;;;;;;25.08;18.05;;;11.20;99.90;;;;;;5053361;28;20218;-86
2022/10/26 00:05:49;;;;;;;27.77;17.33;;;11.20;99.90;;;;;;5049028;28;20233;-85
2022/10/26 00:08:16;;;;;;;31.88;19.02;;;11.20;99.90;;;;;;5044192;28;20198;-82
2022/10/26 00:10:43;;;;;;;27.10;18.25;;;11.20;99.90;;;;;;5044299;28;20256;-84
2022/10/26 00:13:12;;;;;;;19.25;14.18;;;11.20;99.90;;;;;;5047365;28;20260;-84
2022/10/26 00:15:41;;;;;;;20.17;15.35;;;11.20;99.90;;;;;;5048529;28;20202;-85
2022/10/26 00:18:09;;;;;;;22.08;16.75;;;11.30;99.90;;;;;;5042415;28;20205;-84
2022/10/26 00:20:36;;;;;;;20.27;15.50;;;11.20;99.90;;;;;;5038623;28;20241;-82
2022/10/26 00:23:05;;;;;;;24.80;17.98;;;11.20;99.90;;;;;;5042476;28;20249;-86
2022/10/26 00:25:32;;;;;;;24.08;18.20;;;11.20;99.90;;;;;;5043380;28;20201;-82
2022/10/26 00:27:59;;;;;;;23.13;16.63;;;11.10;99.90;;;;;;5043343;28;20236;-83
2022/10/26 00:30:27;;;;;;;23.92;17.52;;;11.20;99.90;;;;;;5045446;28;20293;-83
2022/10/26 00:32:54;;;;;;;27.42;20.35;;;11.10;99.90;;;;;;5058266;28;20237;-83
2022/10/26 00:35:22;;;;;;;23.80;17.83;;;11.10;99.90;;;;;;5065180;28;20229;-85
2022/10/26 00:37:50;;;;;;;29.63;21.33;;;11.00;99.90;;;;;;5065384;28;20228;-85
2022/10/26 00:40:19;;;;;;;31.15;20.70;;;11.00;99.90;;;;;;5050897;28;20234;-84
2022/10/26 00:42:46;;;;;;;28.83;20.08;;;10.80;99.90;;;;;;5074152;28;20242;-85
2022/10/26 00:45:21;;;;;;;32.35;20.70;;;10.90;99.90;;;;;;5075339;28;20255;-84
2022/10/26 00:47:51;;;;;;;30.63;20.77;;;10.90;99.90;;;;;;5074532;28;20210;-84
2022/10/26 00:50:23;;;;;;;34.17;21.58;;;10.80;99.90;;;;;;5053382;28;20212;-84
2022/10/26 00:52:52;;;;;;;29.80;22.30;;;10.90;99.90;;;;;;5049919;28;20256;-84
2022/10/26 00:55:27;;;;;;;31.90;23.77;;;10.80;99.90;;;;;;5049936;28;20289;-85
2022/10/26 00:57:55;;;;;;;27.05;21.60;;;10.90;99.90;;;;;;5050440;28;20204;-84
2022/10/26 01:00:25;;;;;;;24.15;19.02;;;10.90;99.90;;;;;;5054429;28;20195;-83
2022/10/26 01:02:56;;;;;;;32.88;22.50;;;10.90;99.90;;;;;;5054088;28;20238;-82
2022/10/26 01:05:25;;;;;;;29.77;22.85;;;10.90;99.90;;;;;;5054768;28;20278;-85
2022/10/26 01:07:55;;;;;;;30.50;22.10;;;10.80;99.90;;;;;;5053020;28;20228;-85
2022/10/26 01:10:26;;;;;;;34.85;25.50;;;10.80;99.90;;;;;;5052931;28;20208;-80
2022/10/26 01:12:56;;;;;;;32.90;24.25;;;10.80;99.90;;;;;;5052497;28;20221;-83
2022/10/26 01:15:39;;;;;;;34.00;22.95;;;10.70;99.90;;;;;;5052084;28;20197;-83
2022/10/26 01:18:12;;;;;;;38.25;25.45;;;10.80;99.90;;;;;;5054019;28;20656;-82
2022/10/26 01:21:11;;;;;;;32.58;24.17;;;10.70;99.90;;;;;;5054544;28;20189;-82
2022/10/26 01:24:00;;;;;;;27.77;22.65;;;10.80;99.90;;;;;;5056359;28;20226;-83
2022/10/26 01:26:53;;;;;;;35.03;24.80;;;10.80;99.90;;;;;;5056816;28;20213;-84
2022/10/26 01:29:51;;;;;;;32.28;23.83;;;10.70;99.90;;;;;;5044119;28;20188;-84
2022/10/26 01:32:27;;;;;;;29.58;22.48;;;10.80;99.90;;;;;;5043610;28;20321;-82
2022/10/26 01:35:00;;;;;;;28.77;22.33;;;10.80;99.90;;;;;;5032440;28;20198;-83
2022/10/26 01:37:30;;;;;;;32.35;22.80;;;10.80;99.90;;;;;;5044015;28;20198;-84
2022/10/26 01:40:02;;;;;;;34.40;26.63;;;10.80;99.90;;;;;;5045395;28;20215;-84
2022/10/26 01:42:31;;;;;;;46.10;28.90;;;10.80;99.90;;;;;;5044647;28;20223;-83
2022/10/26 01:45:04;;;;;;;37.42;26.52;;;10.80;99.90;;;;;;5044048;28;20204;-83
2022/10/26 01:47:34;;;;;;;30.10;22.50;;;10.80;99.90;;;;;;5049075;28;20202;-81
2022/10/26 01:50:04;;;;;;;33.50;26.42;;;10.80;99.90;;;;;;5052964;28;20214;-81
2022/10/26 01:52:31;;;;;;;30.52;23.88;;;10.90;99.90;;;;;;5057406;28;20269;-84
2022/10/26 01:55:02;;;;;;;33.05;24.13;;;10.80;99.90;;;;;;5046024;28;20195;-83
2022/10/26 01:57:35;;;;;;;35.88;25.90;;;10.90;99.90;;;;;;5033250;28;20262;-85
2022/10/26 02:00:08;;;;;;;28.95;24.33;;;10.80;99.90;;;;;;5046117;28;20908;-82
2022/10/26 02:02:56;;;;;;;37.17;25.27;;;10.70;99.90;;;;;;5038575;28;20232;-83
2022/10/26 02:05:36;;;;;;;33.55;24.70;;;10.70;99.90;;;;;;5043932;28;20206;-85
2022/10/26 02:08:27;;;;;;;35.60;24.27;;;10.70;99.90;;;;;;5039291;28;20228;-83
2022/10/26 02:11:03;;;;;;;39.50;25.13;;;10.70;99.90;;;;;;5044855;28;20210;-82
2022/10/26 02:13:34;;;;;;;36.65;25.75;;;10.80;99.90;;;;;;5046853;28;20226;-82
2022/10/26 02:16:14;;;;;;;44.22;26.40;;;10.70;99.90;;;;;;5047542;28;20185;-82
2022/10/26 02:18:50;;;;;;;44.25;28.48;;;10.60;99.90;;;;;;5054942;28;20220;-85
2022/10/26 02:21:21;;;;;;;38.47;26.52;;;10.60;99.90;;;;;;5055184;28;20221;-87
2022/10/26 02:23:49;;;;;;;34.72;25.98;;;10.60;99.90;;;;;;5054920;28;20210;-84
2022/10/26 02:26:20;;;;;;;36.42;27.85;;;10.60;99.90;;;;;;5046904;28;20236;-83
2022/10/26 02:28:52;;;;;;;46.97;28.10;;;10.60;99.90;;;;;;5049020;28;20190;-83
2022/10/26 02:31:20;;;;;;;36.35;24.90;;;10.60;99.90;;;;;;5046813;28;20205;-85
2022/10/26 02:33:51;;;;;;;39.28;26.55;;;10.80;99.90;;;;;;5055568;28;20335;-83
2022/10/26 02:36:23;;;;;;;41.15;25.92;;;10.70;99.90;;;;;;5031613;28;20233;-82
2022/10/26 02:38:53;;;;;;;34.08;24.63;;;10.70;99.90;;;;;;5045145;28;20302;-84
2022/10/26 02:41:22;;;;;;;46.28;28.98;;;10.70;99.90;;;;;;5041784;28;20238;-83
2022/10/26 02:43:57;;;;;;;39.25;26.45;;;10.70;99.90;;;;;;5042733;28;20621;-82
2022/10/26 02:46:27;;;;;;;42.47;25.77;;;10.70;99.90;;;;;;5033015;28;20234;-84
2022/10/26 02:48:57;;;;;;;48.20;26.50;;;10.60;99.90;;;;;;5042127;28;20302;-84
2022/10/26 02:51:34;;;;;;;44.33;27.42;;;10.70;99.90;;;;;;5042119;28;20211;-82
2022/10/26 02:54:10;;;;;;;49.42;28.30;;;10.70;99.90;;;;;;5044512;28;20207;-82
2022/10/26 02:56:44;;;;;;;50.45;28.90;;;10.60;99.90;;;;;;5044670;28;20246;-83
2022/10/26 02:59:12;;;;;;;51.55;29.15;;;10.60;99.90;;;;;;5046778;28;20202;-85
2022/10/26 03:01:41;;;;;;;57.80;30.10;;;10.60;99.90;;;;;;5043269;28;20308;-85
2022/10/26 03:04:10;;;;;;;40.78;28.10;;;10.60;99.90;;;;;;5050293;28;20235;-85
2022/10/26 03:06:37;;;;;;;38.90;23.23;;;10.60;99.90;;;;;;5044821;28;20232;-83
2022/10/26 03:09:04;;;;;;;42.22;24.20;;;10.60;99.90;;;;;;5045012;28;20240;-83
2022/10/26 03:11:32;;;;;;;33.25;24.42;;;10.60;99.90;;;;;;5047869;28;20201;-84
2022/10/26 03:13:59;;;;;;;29.75;20.58;;;10.60;99.90;;;;;;5052556;28;20279;-83
2022/10/26 03:16:26;;;;;;;33.17;23.63;;;10.60;99.90;;;;;;5054080;28;20229;-84
2022/10/26 03:18:53;;;;;;;37.55;23.85;;;10.60;99.90;;;;;;5051053;28;20262;-83
2022/10/26 03:21:23;;;;;;;37.90;22.58;;;10.60;99.90;;;;;;5052051;28;20236;-83
2022/10/26 03:23:50;;;;;;;36.33;24.75;;;10.60;99.90;;;;;;5053492;28;20196;-85
2022/10/26 03:26:17;;;;;;;28.33;20.35;;;10.50;99.90;;;;;;5050583;28;20262;-82
2022/10/26 03:28:44;;;;;;;34.00;21.80;;;10.50;99.90;;;;;;5052840;28;20217;-83
2022/10/26 03:31:12;;;;;;;36.08;22.35;;;10.40;99.90;;;;;;5052096;28;20225;-83
2022/10/26 03:33:39;;;;;;;39.03;23.90;;;10.50;99.90;;;;;;5050735;28;20220;-80
2022/10/26 03:36:06;;;;;;;30.60;20.90;;;10.50;99.90;;;;;;5048876;28;20219;-85
2022/10/26 03:38:36;;;;;;;38.28;23.23;;;10.50;99.90;;;;;;5043300;28;20230;-83
2022/10/26 03:41:03;;;;;;;36.05;21.85;;;10.40;99.90;;;;;;5044019;28;20637;-82
2022/10/26 03:43:30;;;;;;;32.60;21.48;;;10.40;99.90;;;;;;5049767;28;20220;-82
2022/10/26 03:45:57;;;;;;;31.55;18.73;;;10.40;99.90;;;;;;5050501;28;20204;-81
2022/10/26 03:48:24;;;;;;;34.72;20.60;;;10.40;99.90;;;;;;5049760;28;20223;-82
2022/10/26 03:50:52;;;;;;;31.45;22.55;;;10.40;99.90;;;;;;5051049;28;20219;-81
2022/10/26 03:53:19;;;;;;;30.90;22.35;;;10.50;99.90;;;;;;5033386;28;20631;-82
2022/10/26 03:55:47;;;;;;;32.28;18.30;;;10.50;99.90;;;;;;5030466;28;20221;-82
2022/10/26 03:58:15;;;;;;;31.50;19.92;;;10.70;99.90;;;;;;5046785;28;20272;-81
2022/10/26 04:00:42;;;;;;;29.98;18.92;;;10.50;99.90;;;;;;5050552;28;20204;-81
2022/10/26 04:03:09;;;;;;;28.98;18.35;;;10.50;99.90;;;;;;5049702;28;20223;-81
2022/10/26 04:05:36;;;;;;;29.80;20.58;;;10.50;99.90;;;;;;5051215;28;20258;-82
2022/10/26 04:08:03;;;;;;;45.33;22.35;;;10.50;99.90;;;;;;5050284;28;20225;-80
2022/10/26 04:10:31;;;;;;;54.45;24.45;;;10.60;99.90;;;;;;5050210;28;20213;-81
2022/10/26 04:13:00;;;;;;;37.25;22.52;;;10.50;99.90;;;;;;5050267;28;20241;-81
2022/10/26 04:15:28;;;;;;;45.92;21.80;;;10.40;99.90;;;;;;5053065;28;20239;-82
2022/10/26 04:17:59;;;;;;;39.22;22.70;;;10.60;99.90;;;;;;5050534;28;20293;-82
2022/10/26 04:20:27;;;;;;;36.30;20.25;;;10.50;99.90;;;;;;5048082;28;20249;-83
2022/10/26 04:22:59;;;;;;;30.98;18.55;;;10.50;99.90;;;;;;5053641;28;20248;-81
2022/10/26 04:25:26;;;;;;;29.20;19.40;;;10.50;99.90;;;;;;5038833;28;20201;-82
2022/10/26 04:27:53;;;;;;;30.50;20.45;;;10.50;99.90;;;;;;5042087;28;20303;-84
2022/10/26 04:30:22;;;;;;;29.80;19.08;;;10.50;99.90;;;;;;5041144;28;20197;-82
2022/10/26 04:32:49;;;;;;;28.10;18.52;;;10.50;99.90;;;;;;5032505;28;20241;-87
2022/10/26 04:35:17;;;;;;;34.83;19.30;;;10.50;99.90;;;;;;5041748;28;20257;-83
2022/10/26 04:37:44;;;;;;;26.38;18.83;;;10.40;99.90;;;;;;5042161;28;20256;-85
2022/10/26 04:40:12;;;;;;;28.60;19.80;;;10.40;99.90;;;;;;5048286;28;20225;-82
2022/10/26 04:42:43;;;;;;;27.80;16.92;;;10.40;99.90;;;;;;5038054;28;20283;-82
2022/10/26 04:45:12;;;;;;;29.85;20.38;;;10.50;99.90;;;;;;5050190;28;20196;-81
2022/10/26 04:47:42;;;;;;;30.05;19.05;;;10.40;99.90;;;;;;5049755;28;20201;-82
2022/10/26 04:50:10;;;;;;;28.38;19.58;;;10.40;99.90;;;;;;5050455;28;20216;-81
2022/10/26 04:52:38;;;;;;;31.15;19.98;;;10.50;99.90;;;;;;5046644;28;20368;-84
2022/10/26 04:55:07;;;;;;;37.60;21.30;;;10.60;99.90;;;;;;5049950;28;20212;-83
2022/10/26 04:57:34;;;;;;;33.38;19.42;;;10.40;99.90;;;;;;5048773;28;20214;-83
2022/10/26 05:00:02;;;;;;;25.83;19.35;;;10.30;99.90;;;;;;5050156;28;20725;-83
2022/10/26 05:02:29;;;;;;;30.13;18.35;;;10.40;99.90;;;;;;5048611;28;20240;-82
2022/10/26 05:04:57;;;;;;;26.05;18.60;;;10.40;99.90;;;;;;5044768;28;20293;-79
2022/10/26 05:07:24;;;;;;;26.25;17.17;;;10.30;99.90;;;;;;5045821;28;20234;-83
2022/10/26 05:09:51;;;;;;;24.88;17.38;;;10.30;99.90;;;;;;5048908;28;20225;-82
2022/10/26 05:12:18;;;;;;;28.27;18.88;;;10.30;99.90;;;;;;5048377;28;20252;-84
2022/10/26 05:14:45;;;;;;;31.48;15.90;;;10.40;99.90;;;;;;5046647;28;20234;-81
2022/10/26 05:17:13;;;;;;;22.60;17.60;;;10.40;99.90;;;;;;5047136;28;20251;-82
2022/10/26 05:19:40;;;;;;;25.85;17.90;;;10.30;99.90;;;;;;5046243;28;20243;-82
2022/10/26 05:22:09;;;;;;;26.17;17.35;;;10.30;99.90;;;;;;5046032;28;20237;-82
2022/10/26 05:24:36;;;;;;;27.15;20.13;;;10.30;99.90;;;;;;5043964;28;20262;-78
2022/10/26 05:27:03;;;;;;;27.63;18.67;;;10.20;99.90;;;;;;5033944;28;20217;-80
2022/10/26 05:29:31;;;;;;;21.63;17.20;;;10.20;99.90;;;;;;5026928;28;20208;-80
2022/10/26 05:31:58;;;;;;;21.98;15.43;;;10.20;99.90;;;;;;5038818;28;20224;-81
2022/10/26 05:34:24;;;;;;;27.33;18.80;;;10.20;99.90;;;;;;5044792;28;20255;-81
2022/10/26 05:36:53;;;;;;;32.03;18.83;;;10.20;99.90;;;;;;5046678;28;20220;-81
2022/10/26 05:39:22;;;;;;;28.73;18.00;;;10.20;99.90;;;;;;5045304;28;20238;-78
2022/10/26 05:41:49;;;;;;;27.08;17.38;;;10.20;99.90;;;;;;5044243;28;20295;-77
2022/10/26 05:44:16;;;;;;;27.50;18.48;;;10.20;99.90;;;;;;5045081;28;20235;-80
2022/10/26 05:46:43;;;;;;;27.60;17.83;;;10.10;99.90;;;;;;5036629;28;20207;-80
2022/10/26 05:49:10;;;;;;;27.17;18.60;;;10.20;99.90;;;;;;5036827;28;20236;-79
2022/10/26 05:51:38;;;;;;;23.08;18.00;;;10.20;99.90;;;;;;5041211;28;20238;-78
2022/10/26 05:54:05;;;;;;;22.85;16.23;;;10.20;99.90;;;;;;5041911;28;20228;-80
2022/10/26 05:56:39;;;;;;;23.08;15.98;;;10.20;99.90;;;;;;5045846;28;20216;-78
2022/10/26 05:59:12;;;;;;;27.67;17.63;;;10.20;99.90;;;;;;5044357;28;20201;-80
2022/10/26 06:01:54;;;;;;;28.00;16.80;;;10.20;99.90;;;;;;5038701;28;20232;-79
2022/10/26 06:04:31;;;;;;;28.17;17.77;;;10.20;99.90;;;;;;5046457;28;20208;-79
2022/10/26 06:06:59;;;;;;;31.75;16.45;;;10.20;99.90;;;;;;5044980;28;20634;-78
2022/10/26 06:09:26;;;;;;;22.63;15.80;;;10.20;99.90;;;;;;5039192;28;20205;-82
2022/10/26 06:11:56;;;;;;;24.65;15.75;;;10.20;99.90;;;;;;5043972;28;20224;-79
2022/10/26 06:14:23;;;;;;;27.05;16.58;;;10.20;99.90;;;;;;5045178;28;20243;-79
2022/10/26 06:17:03;;;;;;;24.83;17.77;;;10.20;99.90;;;;;;5046242;28;20224;-78
2022/10/26 06:19:45;;;;;;;28.35;16.90;;;10.20;99.90;;;;;;5048284;28;20202;-80
2022/10/26 06:22:22;;;;;;;21.40;14.75;;;10.20;99.90;;;;;;5027992;28;20254;-80
2022/10/26 06:24:55;;;;;;;24.45;15.20;;;10.20;99.90;;;;;;5039516;28;20224;-81
2022/10/26 06:27:36;;;;;;;25.42;17.70;;;10.20;99.90;;;;;;5043400;28;20224;-82
2022/10/26 06:30:08;;;;;;;22.80;15.30;;;10.20;99.90;;;;;;5044096;28;20205;-82
2022/10/26 06:32:36;;;;;;;26.60;16.02;;;10.20;99.90;;;;;;5041198;28;20263;-78
2022/10/26 06:35:15;;;;;;;24.70;18.65;;;10.10;99.90;;;;;;5033708;28;20213;-78
2022/10/26 06:37:44;;;;;;;18.58;15.25;;;10.20;99.90;;;;;;5039126;28;20227;-77
2022/10/26 06:40:14;;;;;;;20.45;14.48;;;10.20;99.90;;;;;;5048607;28;20215;-79
2022/10/26 06:42:43;;;;;;;24.30;15.18;;;10.30;99.90;;;;;;5049261;28;20320;-77
2022/10/26 06:45:13;;;;;;;25.80;14.70;;;10.40;99.90;;;;;;5049740;28;20301;-77
2022/10/26 06:47:48;;;;;;;22.40;14.88;;;10.40;99.90;;;;;;5054893;28;20286;-78
2022/10/26 06:50:48;;;;;;;17.20;14.80;;;10.40;99.90;;;;;;5051584;28;20191;-80
2022/10/26 06:53:22;;;;;;;17.63;14.68;;;10.80;99.90;;;;;;5048490;28;20288;-86
2022/10/26 06:55:50;;;;;;;15.85;12.80;;;11.40;99.90;;;;;;5048786;28;20213;-83
2022/10/26 06:58:20;;;;;;;16.23;11.57;;;11.80;99.90;;;;;;5052256;28;20234;-84
2022/10/26 07:00:50;;;;;;;15.65;11.45;;;12.50;99.90;;;;;;5046259;28;20208;-81
2022/10/26 07:03:17;;;;;;;14.48;11.00;;;13.10;99.90;;;;;;5053388;28;20311;-84
2022/10/26 07:05:44;;;;;;;19.20;9.18;;;13.70;99.90;;;;;;5055572;28;20196;-81
2022/10/26 07:08:12;;;;;;;15.95;9.95;;;14.10;99.90;;;;;;5051382;28;20224;-86
2022/10/26 07:10:39;;;;;;;10.70;8.23;;;14.30;99.90;;;;;;5047537;28;20261;-84
2022/10/26 07:13:06;;;;;;;11.90;9.48;;;14.70;99.90;;;;;;5043369;28;20258;-81
2022/10/26 07:15:35;;;;;;;9.50;8.60;;;15.30;99.90;;;;;;5046744;28;20199;-82
2022/10/26 07:18:04;;;;;;;10.10;8.48;;;15.50;99.90;;;;;;5044786;28;20274;-83
2022/10/26 07:20:32;;;;;;;11.68;9.20;;;15.10;99.90;;;;;;5048992;28;20206;-81
2022/10/26 07:22:59;;;;;;;10.75;9.35;;;14.60;99.90;;;;;;5049048;28;20216;-82
2022/10/26 07:25:26;;;;;;;11.10;9.27;;;13.90;99.90;;;;;;5048891;28;20269;-84
2022/10/26 07:27:57;;;;;;;17.48;10.95;;;13.60;99.90;;;;;;5036639;28;20204;-82
2022/10/26 07:30:24;;;;;;;18.67;13.05;;;13.40;99.90;;;;;;5044376;28;20204;-78
2022/10/26 07:32:59;;;;;;;15.90;12.73;;;13.00;99.90;;;;;;5052073;28;20251;-82
2022/10/26 07:35:26;;;;;;;16.20;13.15;;;12.60;99.90;;;;;;5051422;28;20218;-82
2022/10/26 07:37:56;;;;;;;13.40;11.32;;;12.60;99.90;;;;;;5055395;28;20260;-78
2022/10/26 07:40:23;;;;;;;13.55;11.07;;;12.10;99.90;;;;;;5053822;28;20270;-78
2022/10/26 07:42:50;;;;;;;13.43;10.73;;;12.20;99.90;;;;;;5054894;28;20342;-80
2022/10/26 07:45:17;;;;;;;19.48;11.95;;;12.00;99.90;;;;;;5052003;28;20206;-83
2022/10/26 07:47:45;;;;;;;17.17;11.52;;;12.10;99.90;;;;;;5046029;28;20279;-85
2022/10/26 07:50:13;;;;;;;21.45;12.50;;;12.10;99.90;;;;;;5044867;28;20615;-82
2022/10/26 07:52:40;;;;;;;12.80;10.73;;;12.10;99.90;;;;;;5046037;28;20220;-85
2022/10/26 07:55:08;;;;;;;14.32;11.85;;;12.20;99.90;;;;;;5048846;28;20219;-85
2022/10/26 07:57:35;;;;;;;17.85;11.98;;;12.10;99.90;;;;;;5050970;28;20208;-82
2022/10/26 08:00:02;;;;;;;12.75;11.32;;;12.20;99.90;;;;;;5048475;28;20221;-85
2022/10/26 08:02:29;;;;;;;14.88;9.80;;;12.30;99.90;;;;;;5048179;28;20288;-83
2022/10/26 08:04:56;;;;;;;17.50;10.05;;;12.30;99.90;;;;;;5050449;28;20239;-85
2022/10/26 08:07:25;;;;;;;19.35;10.50;;;12.40;99.90;;;;;;5051816;28;20251;-79
2022/10/26 08:09:52;;;;;;;16.25;10.40;;;12.40;99.90;;;;;;5047936;28;20212;-84
2022/10/26 08:12:20;;;;;;;13.98;11.48;;;12.40;99.90;;;;;;5048001;28;20323;-83
2022/10/26 08:14:48;;;;;;;20.80;10.98;;;12.40;99.90;;;;;;5050352;28;20220;-82
2022/10/26 08:17:15;;;;;;;14.50;10.50;;;12.50;99.90;;;;;;5047773;28;20200;-84
2022/10/26 08:19:42;;;;;;;13.75;11.32;;;12.40;99.90;;;;;;5046692;28;20211;-84
2022/10/26 08:22:09;;;;;;;17.70;12.18;;;12.50;99.90;;;;;;5043322;28;20227;-83
2022/10/26 08:24:37;;;;;;;15.20;10.70;;;12.60;99.90;;;;;;5049498;28;20268;-78
2022/10/26 08:27:04;;;;;;;14.73;9.60;;;12.60;99.90;;;;;;5054310;28;20212;-80
2022/10/26 08:29:31;;;;;;;14.90;9.65;;;12.70;99.90;;;;;;5050943;28;20235;-86
2022/10/26 08:31:58;;;;;;;15.25;11.77;;;12.80;99.90;;;;;;5047715;28;20303;-84
2022/10/26 08:34:24;;;;;;;16.80;11.50;;;12.80;99.90;;;;;;5048453;28;20238;-85
2022/10/26 08:36:51;;;;;;;14.73;11.63;;;13.00;99.90;;;;;;5047271;28;20280;-85
2022/10/26 08:39:18;;;;;;;13.10;10.20;;;13.20;99.90;;;;;;5042111;28;20269;-83
2022/10/26 08:41:51;;;;;;;18.95;9.98;;;13.70;99.90;;;;;;5048577;28;20224;-87
2022/10/26 08:44:25;;;;;;;12.20;8.80;;;14.10;99.90;;;;;;5046521;28;20292;-84
2022/10/26 08:46:55;;;;;;;10.33;8.17;;;15.20;99.90;;;;;;5047341;28;20234;-82
2022/10/26 08:49:39;;;;;;;10.20;7.50;;;16.60;99.90;;;;;;5045807;28;20441;-82
2022/10/26 08:52:10;;;;;;;10.43;6.90;;;18.40;99.90;;;;;;5049742;28;20960;-84
2022/10/26 08:54:40;;;;;;;10.10;7.40;;;19.90;99.90;;;;;;5043971;28;20497;-84
2022/10/26 08:57:16;;;;;;;9.20;8.30;;;20.50;99.90;;;;;;5041360;28;20444;-82
2022/10/26 08:59:48;;;;;;;8.27;7.23;;;20.70;99.90;;;;;;5038226;28;20948;-82
2022/10/26 09:02:17;;;;;;;7.73;6.90;;;20.80;99.90;;;;;;5045557;28;20491;-87
2022/10/26 09:04:44;;;;;;;7.00;5.63;;;21.00;99.90;;;;;;5046838;28;20510;-82
2022/10/26 09:07:22;;;;;;;7.90;7.10;;;20.90;99.60;;;;;;5043846;28;20534;-82
2022/10/26 09:12:49;;;;;;;15.10;9.13;;;19.60;99.90;;;;;;5045088;28;20455;-83
2022/10/26 09:15:28;;;;;;;14.43;7.63;;;18.70;99.90;;;;;;5051943;28;20482;-84
2022/10/26 09:18:07;;;;;;;8.80;7.20;;;18.40;99.90;;;;;;5048098;28;20522;-82
2022/10/26 09:20:57;;;;;;;11.93;9.47;;;18.20;99.90;;;;;;5045493;28;20443;-82
2022/10/26 09:23:43;;;;;;;7.97;5.90;;;17.80;99.90;;;;;;5045461;28;20479;-85
2022/10/26 09:26:15;;;;;;;9.47;6.50;;;18.40;99.90;;;;;;5051466;28;20447;-82
2022/10/26 09:28:46;;;;;;;8.67;5.43;;;19.40;99.90;;;;;;5049245;28;20437;-81
2022/10/26 09:31:16;;;;;;;10.63;6.87;;;20.30;99.90;;;;;;5051705;28;20439;-83
2022/10/26 09:33:42;;;;;;;10.73;6.33;;;21.50;99.90;;;;;;5049219;28;20510;-83
2022/10/26 09:36:13;;;;;;;7.43;6.40;;;22.10;97.80;;;;;;5048870;28;20443;-85
2022/10/26 09:38:44;;;;;;;9.60;6.93;;;22.30;96.60;;;;;;5045747;28;20543;-81
2022/10/26 09:41:20;;;;;;;7.70;6.33;;;22.80;96.00;;;;;;5045112;28;20905;-82
2022/10/26 09:43:54;;;;;;;7.07;6.37;;;23.50;94.80;;;;;;5044928;28;20442;-84
2022/10/26 09:46:27;;;;;;;8.70;5.93;;;23.80;93.50;;;;;;5040311;28;20505;-84
2022/10/26 09:48:58;;;;;;;7.47;6.70;;;23.80;93.20;;;;;;5041271;28;20691;-85
2022/10/26 09:51:26;;;;;;;13.53;6.87;;;23.50;93.30;;;;;;5033495;28;20504;-80
2022/10/26 09:53:55;;;;;;;8.10;5.90;;;22.80;93.70;;;;;;5044296;28;20539;-80
2022/10/26 09:56:24;;;;;;;6.87;5.77;;;22.70;94.70;;;;;;5046155;28;20463;-84
2022/10/26 09:58:58;;;;;;;8.17;6.47;;;22.80;94.50;;;;;;5042302;28;20463;-83
2022/10/26 10:01:35;;;;;;;9.90;8.60;;;22.80;94.40;;;;;;5032991;28;20467;-84
2022/10/26 10:04:20;;;;;;;6.23;5.53;;;22.80;94.30;;;;;;5033344;28;20455;-81
2022/10/26 10:06:48;;;;;;;7.30;5.80;;;22.60;94.60;;;;;;5036982;28;20440;-83
2022/10/26 10:09:16;;;;;;;6.90;5.90;;;22.30;94.80;;;;;;5039180;28;20447;-83
2022/10/26 10:11:48;;;;;;;6.00;5.40;;;22.40;95.20;;;;;;5039070;28;20463;-83
2022/10/26 10:14:17;;;;;;;9.77;7.03;;;22.30;95.40;;;;;;5036762;28;20475;-82
2022/10/26 10:16:54;;;;;;;6.63;5.93;;;22.30;95.70;;;;;;5048934;28;20443;-86
2022/10/26 10:19:24;;;;;;;9.23;6.17;;;22.10;95.70;;;;;;5046816;28;20436;-82
2022/10/26 10:21:54;;;;;;;14.37;6.60;;;21.90;96.40;;;;;;5046839;28;20479;-83
2022/10/26 10:24:27;;;;;;;9.53;7.50;;;21.50;97.10;;;;;;5048704;28;20442;-82
2022/10/26 10:27:00;;;;;;;8.90;6.70;;;21.00;98.60;;;;;;5057492;28;20455;-84
2022/10/26 10:29:30;;;;;;;10.53;7.97;;;20.60;99.90;;;;;;5063712;28;20430;-80
2022/10/26 10:31:58;;;;;;;7.97;6.07;;;19.90;99.90;;;;;;5056319;28;20489;-79
2022/10/26 10:34:26;;;;;;;8.60;6.93;;;19.20;99.90;;;;;;5051389;28;20562;-83
2022/10/26 10:36:54;;;;;;;11.20;7.47;;;18.80;99.90;;;;;;5053356;28;20468;-83
2022/10/26 10:39:42;;;;;;;12.77;8.03;;;18.60;99.90;;;;;;5048235;28;20453;-80
2022/10/26 10:42:18;;;;;;;10.13;8.00;;;18.30;99.90;;;;;;5029941;28;20522;-82
2022/10/26 10:44:51;;;;;;;10.70;8.03;;;18.20;99.90;;;;;;5045744;28;20458;-82
2022/10/26 10:47:25;;;;;;;8.90;7.47;;;18.20;99.90;;;;;;5046040;28;20470;-83
2022/10/26 10:49:58;;;;;;;14.10;8.93;;;18.00;99.90;;;;;;5046638;28;20456;-80
2022/10/26 10:52:28;;;;;;;9.33;8.33;;;17.90;99.90;;;;;;5034480;28;20487;-78
2022/10/26 10:55:15;;;;;;;12.80;8.07;;;17.80;99.90;;;;;;5051815;28;20545;-81
2022/10/26 10:57:56;;;;;;;16.50;8.23;;;17.50;99.90;;;;;;5047696;28;20504;-80
2022/10/26 11:00:25;;;;;;;9.23;7.13;;;17.50;99.90;;;;;;5049422;28;20505;-79
2022/10/26 11:03:08;;;;;;;9.57;7.27;;;17.40;99.90;;;;;;5046069;28;20466;-81
2022/10/26 11:06:05;;;;;;;12.83;7.33;;;17.40;99.90;;;;;;5049527;28;20522;-80
2022/10/26 11:08:38;;;;;;;8.60;6.93;;;17.40;99.90;;;;;;5045504;28;20482;-80
2022/10/26 11:11:10;;;;;;;11.20;7.50;;;17.50;99.90;;;;;;5049150;28;20826;-79
2022/10/26 11:13:40;;;;;;;7.77;6.63;;;17.50;99.90;;;;;;5047446;28;20526;-80
2022/10/26 11:16:14;;;;;;;11.60;9.33;;;17.50;99.90;;;;;;5051251;28;20558;-79
2022/10/26 11:18:46;;;;;;;12.83;7.60;;;17.50;99.90;;;;;;5049395;28;20426;-78
2022/10/26 11:21:23;;;;;;;8.40;7.50;;;17.70;99.90;;;;;;5047796;28;20510;-79
2022/10/26 11:23:54;;;;;;;10.10;7.07;;;17.70;99.90;;;;;;5046693;28;20448;-79
2022/10/26 11:26:28;;;;;;;8.83;6.90;;;17.60;99.90;;;;;;5048299;28;20462;-80
2022/10/26 11:28:59;;;;;;;7.30;6.33;;;17.70;99.90;;;;;;5044467;28;20497;-81
2022/10/26 11:31:31;;;;;;;10.07;7.87;;;17.80;99.90;;;;;;5054827;28;20542;-80
2022/10/26 11:34:12;;;;;;;8.13;6.80;;;18.00;99.90;;;;;;5046351;28;20670;-77
2022/10/26 11:36:40;;;;;;;10.30;8.10;;;18.00;99.90;;;;;;5036483;28;21009;-81
2022/10/26 11:39:14;;;;;;;10.27;7.13;;;17.90;99.90;;;;;;5044673;28;20451;-82
2022/10/26 11:41:48;;;;;;;10.10;6.50;;;18.10;99.90;;;;;;5045645;28;20471;-80
2022/10/26 11:44:22;;;;;;;7.90;6.30;;;18.10;99.90;;;;;;5041007;28;20457;-84
2022/10/26 11:46:55;;;;;;;15.03;6.90;;;18.30;99.90;;;;;;5043783;28;20432;-80
2022/10/26 11:49:27;;;;;;;10.27;7.00;;;18.30;99.90;;;;;;5044130;28;20505;-81
2022/10/26 11:51:59;;;;;;;11.33;7.73;;;18.40;99.90;;;;;;5047068;28;20526;-82
2022/10/26 11:54:35;;;;;;;9.63;7.30;;;18.30;99.90;;;;;;5045044;28;20482;-80
2022/10/26 11:57:05;;;;;;;9.13;6.60;;;18.30;99.90;;;;;;5031418;28;20450;-80
2022/10/26 11:59:37;;;;;;;8.03;6.83;;;18.40;99.90;;;;;;5043266;28;20528;-82
2022/10/26 12:02:14;;;;;;;10.90;6.97;;;18.40;99.90;;;;;;5033374;28;20500;-81
2022/10/26 12:04:43;;;;;;;8.50;6.80;;;18.20;99.90;;;;;;5034848;28;20454;-81
2022/10/26 12:07:15;;;;;;;9.90;7.20;;;18.20;99.90;;;;;;5034130;28;20454;-81
2022/10/26 12:09:44;;;;;;;7.73;6.60;;;18.20;99.90;;;;;;5041064;28;20483;-82
2022/10/26 12:12:17;;;;;;;8.20;5.97;;;18.30;99.90;;;;;;5036333;28;20849;-80
2022/10/26 12:14:49;;;;;;;16.13;7.13;;;18.30;99.90;;;;;;5043610;28;20471;-82
2022/10/26 12:17:24;;;;;;;9.10;5.83;;;18.30;99.90;;;;;;5046714;28;20448;-83
2022/10/26 12:19:58;;;;;;;8.60;5.83;;;18.40;99.90;;;;;;5051322;28;20471;-82
2022/10/26 12:22:32;;;;;;;10.43;6.40;;;18.50;99.90;;;;;;5044354;28;20517;-80
2022/10/26 12:25:20;;;;;;;7.87;6.63;;;18.50;99.90;;;;;;5045150;28;20431;-80
2022/10/26 12:27:53;;;;;;;9.70;6.67;;;18.30;99.90;;;;;;5034668;28;20451;-81
2022/10/26 12:30:51;;;;;;;9.97;6.20;;;18.30;99.90;;;;;;5042571;28;20442;-80
2022/10/26 12:33:30;;;;;;;6.70;5.53;;;18.20;99.90;;;;;;5049209;28;20957;-79
2022/10/26 12:35:56;;;;;;;10.83;7.27;;;18.20;99.90;;;;;;5046995;28;20545;-82
2022/10/26 12:39:02;;;;;;;9.43;6.57;;;18.30;99.90;;;;;;5051122;28;20888;-81
2022/10/26 12:41:29;;;;;;;10.50;5.87;;;18.30;99.90;;;;;;5050225;28;20454;-81
2022/10/26 12:43:58;;;;;;;7.10;5.90;;;18.40;99.90;;;;;;5039930;28;20428;-80
2022/10/26 12:46:41;;;;;;;8.37;5.63;;;18.40;99.90;;;;;;5036593;28;20474;-81
2022/10/26 12:49:56;;;;;;;6.50;5.40;;;18.30;99.90;;;;;;5046559;28;20447;-81
2022/10/26 12:52:40;;;;;;;7.77;5.70;;;18.20;99.90;;;;;;5045969;28;20470;-78
2022/10/26 12:55:49;;;;;;;13.27;7.00;;;18.30;99.90;;;;;;5046887;28;20478;-79
2022/10/26 12:58:42;;;;;;;5.97;5.27;;;18.30;99.90;;;;;;5044425;28;20748;-79